Time;durP1;ratioP1;P1;durP2;ratioP2;P2;SDS_P1;SDS_P2;PMS_P1;PMS_P2;Temp;Humidity;BMP_temperature;BMP_pressure;BME280_temperature;BME280_humidity;BME280_pressure;Samples;Min_cycle;Max_cycle;Signal;HPM_P1;HPM_P2
2021/11/28 00:01:52;;;;;;;43.70;27.65;;;;;;;7.99;100.00;98633.44;5038926;28;20033;-70
2021/11/28 00:04:17;;;;;;;44.97;28.40;;;;;;;7.97;100.00;98622.06;5035573;28;20033;-70
2021/11/28 00:06:53;;;;;;;42.83;27.73;;;;;;;7.92;100.00;98615.53;5035917;28;20021;-70
2021/11/28 00:14:46;;;;;;;46.10;28.05;;;;;;;7.98;100.00;98623.75;5034937;28;20449;-70
2021/11/28 00:17:12;;;;;;;42.25;26.55;;;;;;;7.87;100.00;98609.88;5033786;28;20100;-70
2021/11/28 00:19:39;;;;;;;43.33;27.17;;;;;;;7.99;100.00;98629.91;5009832;28;20029;-70
2021/11/28 00:22:06;;;;;;;47.17;28.58;;;;;;;7.97;100.00;98630.06;5042749;28;20350;-70
2021/11/28 00:24:32;;;;;;;43.47;27.35;;;;;;;7.97;100.00;98623.91;5047180;28;20090;-70
2021/11/28 00:26:58;;;;;;;44.78;26.63;;;;;;;7.93;100.00;98614.56;5041409;28;20036;-70
2021/11/28 00:29:24;;;;;;;41.38;26.25;;;;;;;7.96;100.00;98617.75;5027214;28;20029;-69
2021/11/28 00:31:49;;;;;;;41.72;26.77;;;;;;;7.98;100.00;98625.59;5027248;28;20029;-70
2021/11/28 00:34:15;;;;;;;41.15;27.63;;;;;;;7.97;100.00;98623.91;5039508;28;20051;-69
2021/11/28 00:36:40;;;;;;;42.55;26.38;;;;;;;7.94;100.00;98610.91;5039507;28;20025;-70
2021/11/28 00:39:06;;;;;;;43.28;29.70;;;;;;;7.98;100.00;98617.56;5042121;28;20017;-70
2021/11/28 00:41:31;;;;;;;46.22;27.20;;;;;;;7.96;100.00;98615.06;5029816;28;20486;-70
2021/11/28 00:43:57;;;;;;;45.53;28.15;;;;;;;7.99;100.00;98622.75;5023202;28;20061;-70
2021/11/28 00:46:22;;;;;;;46.00;28.48;;;;;;;7.90;100.00;98607.69;5051109;28;20829;-70
2021/11/28 00:48:48;;;;;;;42.67;27.38;;;;;;;7.97;100.00;98614.06;5039813;28;20030;-70
2021/11/28 00:53:43;;;;;;;41.63;27.17;;;;;;;7.97;100.00;98616.72;5051348;28;20064;-70
2021/11/28 00:56:09;;;;;;;45.63;29.92;;;;;;;7.97;100.00;98613.25;5040159;28;20523;-70
2021/11/28 00:58:34;;;;;;;42.17;28.13;;;;;;;7.98;100.00;98613.09;5031390;28;20060;-70
2021/11/28 01:01:00;;;;;;;44.67;28.13;;;;;;;7.96;100.00;98608.91;5033736;28;20443;-70
2021/11/28 01:03:25;;;;;;;40.90;26.10;;;;;;;7.97;100.00;98616.72;5044263;28;20159;-70
2021/11/28 01:05:52;;;;;;;44.90;27.73;;;;;;;7.92;100.00;98610.22;5051381;28;20091;-70
2021/11/28 01:08:17;;;;;;;46.33;29.88;;;;;;;7.90;100.00;98614.88;5043753;28;20065;-70
2021/11/28 01:10:45;;;;;;;45.80;28.83;;;;;;;7.95;100.00;98617.91;5030984;28;20060;-69
2021/11/28 01:13:11;;;;;;;45.70;29.20;;;;;;;7.94;100.00;98622.41;5048851;28;20033;-69
2021/11/28 01:15:36;;;;;;;42.45;27.48;;;;;;;7.93;100.00;98623.41;5030957;28;20481;-69
2021/11/28 01:18:02;;;;;;;46.30;28.80;;;;;;;7.93;100.00;98610.03;5033335;28;20021;-70
2021/11/28 01:20:28;;;;;;;43.00;28.83;;;;;;;7.95;100.00;98613.41;5046898;28;20063;-70
2021/11/28 01:22:53;;;;;;;44.50;27.92;;;;;;;7.88;100.00;98598.19;5040521;28;20522;-70
2021/11/28 01:25:19;;;;;;;45.28;28.70;;;;;;;7.87;100.00;98597.34;5050690;28;20389;-70
2021/11/28 01:27:45;;;;;;;44.95;28.52;;;;;;;7.96;100.00;98611.59;5031189;28;20091;-70
2021/11/28 01:30:11;;;;;;;45.80;28.98;;;;;;;7.98;100.00;98606.91;5030369;28;20037;-70
2021/11/28 01:32:38;;;;;;;47.95;30.08;;;;;;;7.96;100.00;98616.91;5038422;28;20477;-70
2021/11/28 01:35:06;;;;;;;42.50;27.40;;;;;;;7.96;100.00;98606.25;5028071;28;20504;-70
2021/11/28 01:37:34;;;;;;;40.95;26.38;;;;;;;7.96;100.00;98612.41;5040637;28;20066;-69
2021/11/28 01:40:05;;;;;;;42.97;27.42;;;;;;;7.97;100.00;98611.38;5046803;28;20454;-70
2021/11/28 01:42:52;;;;;;;44.92;28.58;;;;;;;8.00;100.00;98604.91;5031714;28;20029;-69
2021/11/28 01:45:24;;;;;;;40.53;25.27;;;;;;;7.92;100.00;98594.19;5044266;28;20036;-69
2021/11/28 01:47:52;;;;;;;40.08;26.00;;;;;;;7.97;100.00;98597.22;5038903;28;20031;-69
2021/11/28 01:50:18;;;;;;;42.88;26.88;;;;;;;8.01;100.00;98601.25;5036505;28;20284;-71
2021/11/28 01:52:44;;;;;;;41.75;26.92;;;;;;;7.94;100.00;98594.88;5040314;28;20071;-71
2021/11/28 01:55:14;;;;;;;40.05;25.75;;;;;;;7.95;100.00;98605.41;5038440;28;20068;-70
2021/11/28 01:57:40;;;;;;;41.42;27.05;;;;;;;7.95;100.00;98608.06;5030368;28;20021;-71
2021/11/28 02:00:11;;;;;;;39.28;25.25;;;;;;;7.89;100.00;98602.50;5030129;28;20029;-70
2021/11/28 02:02:37;;;;;;;40.58;26.90;;;;;;;7.96;100.00;98616.91;5033585;28;20030;-70
2021/11/28 02:05:04;;;;;;;42.15;26.00;;;;;;;7.94;100.00;98610.91;5039296;28;20473;-70
2021/11/28 02:07:30;;;;;;;38.80;26.48;;;;;;;7.93;100.00;98609.22;5029785;28;20496;-70
2021/11/28 02:09:55;;;;;;;41.78;26.15;;;;;;;7.94;100.00;98609.06;5047026;28;20107;-70
2021/11/28 02:12:24;;;;;;;38.33;25.20;;;;;;;7.93;100.00;98611.91;5040904;28;20029;-70
2021/11/28 02:14:50;;;;;;;40.97;25.77;;;;;;;7.94;100.00;98613.56;5030303;28;20061;-70
2021/11/28 02:17:15;;;;;;;38.95;25.52;;;;;;;7.94;100.00;98605.56;5031677;28;20481;-70
2021/11/28 02:19:41;;;;;;;37.08;25.15;;;;;;;7.85;100.00;98590.50;5029907;28;20466;-69
2021/11/28 02:22:06;;;;;;;39.97;24.65;;;;;;;7.95;100.00;98607.22;5043471;28;20032;-71
2021/11/28 02:24:32;;;;;;;37.40;25.15;;;;;;;7.93;100.00;98599.38;5044014;28;20037;-71
2021/11/28 02:26:57;;;;;;;40.72;26.77;;;;;;;7.95;100.00;98596.53;5039142;28;20075;-70
2021/11/28 02:29:23;;;;;;;39.15;25.83;;;;;;;7.92;100.00;98587.03;5048268;28;20051;-70
2021/11/28 02:31:48;;;;;;;41.03;25.30;;;;;;;7.93;100.00;98601.22;5019577;28;20037;-70
2021/11/28 02:34:14;;;;;;;39.08;26.00;;;;;;;7.93;100.00;98578.03;5049401;28;20017;-71
2021/11/28 02:36:40;;;;;;;38.92;24.92;;;;;;;7.91;100.00;98566.69;5045510;28;20029;-70
2021/11/28 02:39:05;;;;;;;38.90;24.67;;;;;;;7.96;100.00;98575.03;5048103;28;20085;-70
2021/11/28 02:41:31;;;;;;;36.03;24.58;;;;;;;7.97;100.00;98563.34;5041149;28;20040;-70
2021/11/28 02:43:57;;;;;;;39.90;24.90;;;;;;;7.98;100.00;98570.38;5044883;28;20508;-70
2021/11/28 02:46:22;;;;;;;37.03;24.40;;;;;;;7.91;100.00;98552.50;5011655;28;20040;-69
2021/11/28 02:48:48;;;;;;;37.17;24.45;;;;;;;7.97;100.00;98560.69;5034537;28;20025;-70
2021/11/28 02:51:13;;;;;;;37.45;24.13;;;;;;;8.00;100.00;98548.88;5036374;28;20078;-70
2021/11/28 02:53:39;;;;;;;36.90;22.83;;;;;;;7.99;100.00;98544.50;5032855;28;20480;-70
2021/11/28 02:56:05;;;;;;;37.30;24.08;;;;;;;7.98;100.00;98542.84;5048854;28;20021;-70
2021/11/28 02:58:33;;;;;;;38.65;24.05;;;;;;;7.97;100.00;98549.19;5045842;28;20064;-69
2021/11/28 03:01:05;;;;;;;39.67;24.00;;;;;;;7.96;100.00;98555.53;5031489;28;20112;-70
2021/11/28 03:03:33;;;;;;;32.55;22.67;;;;;;;7.89;100.00;98568.66;5039136;28;20035;-69
2021/11/28 03:05:58;;;;;;;34.88;22.30;;;;;;;7.96;100.00;98574.22;5028395;28;20362;-70
2021/11/28 03:08:24;;;;;;;38.50;23.98;;;;;;;7.96;100.00;98567.03;5043801;28;20019;-69
2021/11/28 03:10:54;;;;;;;34.75;22.40;;;;;;;7.98;100.00;98557.03;5038953;28;20118;-68
2021/11/28 03:13:26;;;;;;;37.85;24.08;;;;;;;7.92;100.00;98522.13;5036209;28;20496;-70
2021/11/28 03:15:55;;;;;;;35.40;22.60;;;;;;;8.00;100.00;98508.81;5028734;28;20025;-71
2021/11/28 03:18:23;;;;;;;36.03;23.05;;;;;;;8.01;100.00;98513.16;5028316;28;20038;-70
2021/11/28 03:20:51;;;;;;;32.50;22.85;;;;;;;7.96;100.00;98496.81;5034130;28;20033;-70
2021/11/28 03:23:17;;;;;;;34.30;22.52;;;;;;;7.98;100.00;98495.66;5040326;28;20071;-70
2021/11/28 03:25:44;;;;;;;36.47;23.20;;;;;;;7.93;100.00;98470.44;5043243;28;20037;-69
2021/11/28 03:28:15;;;;;;;35.50;23.58;;;;;;;8.01;100.00;98489.13;5039869;28;20021;-70
2021/11/28 03:30:42;;;;;;;34.03;23.88;;;;;;;7.93;100.00;98481.94;5028361;28;20029;-69
2021/11/28 03:33:07;;;;;;;37.08;24.80;;;;;;;7.94;100.00;98485.44;5028210;28;20037;-69
2021/11/28 03:35:33;;;;;;;35.78;22.88;;;;;;;7.89;100.00;98496.59;5036273;28;20049;-69
2021/11/28 03:37:58;;;;;;;39.25;26.05;;;;;;;7.98;100.00;98534.84;5024267;28;20029;-69
2021/11/28 03:40:24;;;;;;;39.97;26.48;;;;;;;7.87;100.00;98538.63;5047965;28;20037;-70
2021/11/28 03:42:49;;;;;;;37.78;24.25;;;;;;;7.93;100.00;98545.19;5034896;28;20113;-70
2021/11/28 03:45:18;;;;;;;36.92;24.25;;;;;;;7.94;100.00;98552.19;5024720;28;20046;-68
2021/11/28 03:47:46;;;;;;;35.03;24.75;;;;;;;7.92;100.00;98548.81;5031605;28;20037;-70
2021/11/28 03:50:11;;;;;;;36.90;23.83;;;;;;;7.85;100.00;98540.63;5036033;28;20021;-70
2021/11/28 03:52:37;;;;;;;35.45;24.35;;;;;;;7.89;100.00;98557.16;5045461;28;20029;-69
2021/11/28 03:55:04;;;;;;;35.63;23.20;;;;;;;7.88;100.00;98558.16;5039820;28;20091;-69
2021/11/28 03:57:30;;;;;;;33.20;23.17;;;;;;;7.90;100.00;98561.50;5038775;28;20025;-70
2021/11/28 03:59:56;;;;;;;35.08;22.92;;;;;;;7.90;100.00;98562.31;5036281;28;20037;-69
2021/11/28 04:02:21;;;;;;;33.55;23.20;;;;;;;7.80;100.00;98547.47;5047635;28;20059;-70
2021/11/28 04:04:47;;;;;;;36.30;21.27;;;;;;;7.91;100.00;98549.81;5037541;28;20047;-69
2021/11/28 04:07:13;;;;;;;36.33;24.30;;;;;;;7.90;100.00;98559.66;5033719;28;20385;-70
2021/11/28 04:09:38;;;;;;;38.05;24.23;;;;;;;7.89;100.00;98558.00;5043240;28;20028;-70
2021/11/28 04:12:05;;;;;;;36.13;23.50;;;;;;;7.83;100.00;98547.97;5040545;28;20026;-70
2021/11/28 04:14:30;;;;;;;37.15;24.30;;;;;;;7.89;100.00;98560.66;5009610;28;20036;-70
2021/11/28 04:16:56;;;;;;;36.38;24.20;;;;;;;7.88;100.00;98556.34;5033172;28;20029;-70
2021/11/28 04:19:21;;;;;;;32.65;22.90;;;;;;;7.89;100.00;98546.47;5035320;28;20025;-69
2021/11/28 04:21:47;;;;;;;36.75;24.13;;;;;;;7.87;100.00;98545.81;5039831;28;20032;-69
2021/11/28 04:24:13;;;;;;;35.60;23.77;;;;;;;7.86;100.00;98536.97;5036988;28;20064;-70
2021/11/28 04:26:40;;;;;;;33.42;22.55;;;;;;;7.86;100.00;98544.13;5013881;28;20030;-70
2021/11/28 04:29:05;;;;;;;33.83;23.42;;;;;;;7.74;100.00;98511.56;5017076;28;20032;-70
2021/11/28 04:31:31;;;;;;;37.15;23.48;;;;;;;7.86;100.00;98520.09;5031517;28;20037;-70
2021/11/28 04:33:56;;;;;;;38.40;23.80;;;;;;;7.82;100.00;98508.09;5041677;28;20033;-69
2021/11/28 04:36:22;;;;;;;34.00;23.08;;;;;;;7.87;100.00;98508.44;5017473;28;20036;-69
2021/11/28 04:38:47;;;;;;;33.60;23.42;;;;;;;7.87;100.00;98511.13;5047402;28;20031;-69
2021/11/28 04:41:13;;;;;;;34.22;23.35;;;;;;;7.85;100.00;98507.78;5037840;28;20041;-70
2021/11/28 04:43:38;;;;;;;33.03;21.52;;;;;;;7.84;100.00;98517.59;5030614;28;20017;-70
2021/11/28 04:46:04;;;;;;;31.58;21.98;;;;;;;7.79;100.00;98516.41;5047326;28;20028;-70
2021/11/28 04:48:29;;;;;;;37.53;24.27;;;;;;;7.88;100.00;98537.66;5042218;28;20044;-70
2021/11/28 04:50:55;;;;;;;33.95;23.23;;;;;;;7.86;100.00;98531.63;5036961;28;20033;-70
2021/11/28 04:53:21;;;;;;;33.80;22.63;;;;;;;7.85;100.00;98537.97;5028727;28;20025;-70
2021/11/28 04:55:47;;;;;;;35.95;23.42;;;;;;;7.84;100.00;98525.59;5039466;28;20040;-69
2021/11/28 04:58:12;;;;;;;33.17;21.67;;;;;;;7.87;100.00;98516.47;5027649;28;20025;-69
2021/11/28 05:00:38;;;;;;;35.05;23.30;;;;;;;7.84;100.00;98504.25;5012589;28;20056;-69
2021/11/28 05:03:03;;;;;;;34.40;23.38;;;;;;;7.84;100.00;98504.25;5044815;28;20032;-70
2021/11/28 05:05:29;;;;;;;34.85;22.88;;;;;;;7.84;100.00;98516.78;5042076;28;20417;-70
2021/11/28 05:07:55;;;;;;;33.67;22.38;;;;;;;7.86;100.00;98514.78;5046305;28;20111;-70
2021/11/28 05:10:21;;;;;;;35.78;23.27;;;;;;;7.81;100.00;98507.28;5040390;28;20063;-70
2021/11/28 05:12:46;;;;;;;33.55;22.88;;;;;;;7.85;100.00;98513.09;5019116;28;20473;-70
2021/11/28 05:15:12;;;;;;;33.72;21.38;;;;;;;7.84;100.00;98508.78;5038122;28;20029;-70
2021/11/28 05:17:37;;;;;;;36.05;24.17;;;;;;;7.83;100.00;98523.94;5032964;28;20060;-70
2021/11/28 05:20:04;;;;;;;37.45;23.55;;;;;;;7.76;100.00;98514.91;5047059;28;20557;-69
2021/11/28 05:22:30;;;;;;;35.78;24.00;;;;;;;7.86;100.00;98536.13;5032359;28;20037;-70
2021/11/28 05:24:56;;;;;;;34.65;23.70;;;;;;;7.82;100.00;98534.78;5041482;28;20388;-69
2021/11/28 05:27:23;;;;;;;35.90;23.67;;;;;;;7.82;100.00;98538.28;5043459;28;20485;-70
2021/11/28 05:29:48;;;;;;;37.00;23.95;;;;;;;7.83;100.00;98539.13;5042147;28;20021;-69
2021/11/28 05:32:14;;;;;;;39.67;23.50;;;;;;;7.82;100.00;98534.78;5036263;28;20052;-69
2021/11/28 05:34:40;;;;;;;37.78;25.55;;;;;;;7.83;100.00;98531.13;5052301;28;20087;-70
2021/11/28 05:37:06;;;;;;;34.15;23.05;;;;;;;7.77;100.00;98527.25;5048997;28;20030;-70
2021/11/28 05:39:32;;;;;;;35.22;23.05;;;;;;;7.70;100.00;98530.75;5036976;28;20017;-70
2021/11/28 05:41:58;;;;;;;39.88;25.90;;;;;;;7.75;100.00;98550.59;5053924;28;20483;-70
2021/11/28 05:44:24;;;;;;;37.28;24.45;;;;;;;7.77;100.00;98540.59;5057195;28;20554;-70
2021/11/28 05:46:49;;;;;;;35.92;25.15;;;;;;;7.76;100.00;98527.41;5052492;28;20056;-69
2021/11/28 05:49:15;;;;;;;43.50;27.10;;;;;;;7.76;100.00;98535.41;5069280;28;20028;-69
2021/11/28 05:51:41;;;;;;;40.45;25.45;;;;;;;7.75;100.00;98531.94;5039318;28;20078;-69
2021/11/28 05:54:06;;;;;;;40.58;26.20;;;;;;;7.68;100.00;98522.91;5059482;28;20438;-69
2021/11/28 05:56:32;;;;;;;39.90;25.42;;;;;;;7.75;100.00;98542.59;5053483;28;20473;-69
2021/11/28 05:58:57;;;;;;;40.65;25.52;;;;;;;7.74;100.00;98535.56;5053421;28;20021;-70
2021/11/28 06:01:23;;;;;;;37.85;25.27;;;;;;;7.74;100.00;98542.75;5033504;28;20374;-69
2021/11/28 06:03:48;;;;;;;41.95;25.60;;;;;;;7.64;100.00;98524.19;5056929;28;20112;-69
2021/11/28 06:06:14;;;;;;;39.50;24.73;;;;;;;7.72;100.00;98539.41;5055130;28;20082;-69
2021/11/28 06:08:41;;;;;;;38.13;25.55;;;;;;;7.66;100.00;98522.22;5061656;28;20044;-70
2021/11/28 06:11:06;;;;;;;39.03;25.05;;;;;;;7.69;100.00;98534.38;5057943;28;20025;-70
2021/11/28 06:13:32;;;;;;;40.00;25.08;;;;;;;7.71;100.00;98546.56;5051121;28;20031;-69
2021/11/28 06:15:57;;;;;;;41.50;25.25;;;;;;;7.65;100.00;98546.38;5057120;28;20024;-69
2021/11/28 06:18:25;;;;;;;38.25;23.50;;;;;;;7.69;100.00;98545.06;5065997;28;20467;-69
2021/11/28 06:20:51;;;;;;;37.50;23.27;;;;;;;7.66;100.00;98545.38;5060448;28;20048;-70
2021/11/28 06:23:16;;;;;;;39.53;24.52;;;;;;;7.62;100.00;98538.69;5053541;28;20032;-69
2021/11/28 06:25:42;;;;;;;43.10;26.30;;;;;;;7.66;100.00;98550.72;5057305;28;20036;-70
2021/11/28 06:28:08;;;;;;;42.20;24.75;;;;;;;7.65;100.00;98551.72;5068681;28;20023;-70
2021/11/28 06:30:34;;;;;;;41.17;25.13;;;;;;;7.70;100.00;98562.75;5052434;28;20051;-70
2021/11/28 06:32:59;;;;;;;40.88;25.48;;;;;;;7.71;100.00;98575.09;5057571;28;20029;-69
2021/11/28 06:35:26;;;;;;;44.28;25.77;;;;;;;7.72;100.00;98566.94;5042037;28;20364;-69
2021/11/28 06:37:51;;;;;;;43.35;24.58;;;;;;;7.74;100.00;98580.13;5057449;28;20029;-69
2021/11/28 06:40:17;;;;;;;39.65;24.92;;;;;;;7.72;100.00;98580.28;5048079;28;20045;-69
2021/11/28 06:42:43;;;;;;;40.30;24.75;;;;;;;7.64;100.00;98577.53;5030609;28;20041;-70
2021/11/28 06:45:09;;;;;;;42.85;25.35;;;;;;;7.68;100.00;98580.75;5032935;28;20060;-70
2021/11/28 06:47:35;;;;;;;40.55;24.63;;;;;;;7.74;100.00;98588.13;5040147;28;20047;-70
2021/11/28 06:50:00;;;;;;;41.75;24.40;;;;;;;7.74;100.00;98590.78;5021072;28;20049;-70
2021/11/28 06:52:26;;;;;;;44.78;25.27;;;;;;;7.73;100.00;98584.59;5030553;28;20025;-70
2021/11/28 06:54:51;;;;;;;34.90;23.15;;;;;;;7.75;100.00;98579.94;5030388;28;20586;-70
2021/11/28 06:57:17;;;;;;;41.88;24.45;;;;;;;7.77;100.00;98577.13;5033439;28;20391;-70
2021/11/28 06:59:42;;;;;;;39.67;24.65;;;;;;;7.78;100.00;98581.47;5033142;28;20083;-69
2021/11/28 07:02:08;;;;;;;36.38;22.50;;;;;;;7.79;100.00;98578.63;5049733;28;20083;-71
2021/11/28 07:04:34;;;;;;;38.40;23.38;;;;;;;7.77;100.00;98569.94;5032012;28;20029;-70
2021/11/28 07:07:00;;;;;;;39.03;24.27;;;;;;;7.80;100.00;98563.47;5047690;28;20037;-70
2021/11/28 07:09:27;;;;;;;40.28;24.13;;;;;;;7.87;100.00;98576.00;5047308;28;20028;-71
2021/11/28 07:11:52;;;;;;;41.95;24.40;;;;;;;7.83;100.00;98563.16;5023723;28;20048;-70
2021/11/28 07:14:18;;;;;;;45.63;27.15;;;;;;;7.88;100.00;98568.81;5039025;28;20025;-71
2021/11/28 07:16:46;;;;;;;48.20;27.33;;;;;;;7.90;100.00;98561.50;5037803;28;20044;-70
2021/11/28 07:19:11;;;;;;;43.33;26.95;;;;;;;7.82;100.00;98546.28;5035331;28;20036;-70
2021/11/28 07:21:37;;;;;;;50.90;27.08;;;;;;;7.90;100.00;98542.81;5035810;28;20132;-70
2021/11/28 07:24:03;;;;;;;46.13;25.92;;;;;;;7.89;100.00;98538.47;5037954;28;20025;-71
2021/11/28 07:26:29;;;;;;;45.83;25.98;;;;;;;7.93;100.00;98531.84;5043134;28;20029;-71
2021/11/28 07:28:54;;;;;;;41.40;25.42;;;;;;;7.94;100.00;98525.50;5039632;28;20108;-71
2021/11/28 07:31:21;;;;;;;40.38;24.27;;;;;;;7.97;100.00;98534.00;5045745;28;20021;-71
2021/11/28 07:33:46;;;;;;;37.15;25.02;;;;;;;7.99;100.00;98541.84;5041101;28;20060;-71
2021/11/28 07:36:12;;;;;;;42.20;25.80;;;;;;;8.01;100.00;98539.84;5043932;28;20425;-71
2021/11/28 07:38:38;;;;;;;38.30;24.60;;;;;;;7.98;100.00;98526.81;5046878;28;20025;-70
2021/11/28 07:41:04;;;;;;;39.33;25.20;;;;;;;8.07;100.00;98539.22;5028542;28;20111;-68
2021/11/28 07:43:30;;;;;;;37.10;24.00;;;;;;;8.10;100.00;98525.53;5038045;28;20053;-67
2021/11/28 07:45:56;;;;;;;37.58;23.90;;;;;;;8.16;100.00;98511.53;5013106;28;20573;-68
2021/11/28 07:48:22;;;;;;;36.35;22.75;;;;;;;8.18;100.00;98506.84;5040818;28;20044;-68
2021/11/28 07:50:49;;;;;;;33.13;21.38;;;;;;;8.25;100.00;98508.75;5031351;28;20456;-68
2021/11/28 07:53:15;;;;;;;32.67;21.85;;;;;;;8.27;100.00;98506.75;5035467;28;20613;-69
2021/11/28 07:55:41;;;;;;;30.45;20.05;;;;;;;8.29;100.00;98498.59;5038894;28;20029;-69
2021/11/28 07:58:07;;;;;;;29.95;19.95;;;;;;;8.29;100.00;98494.06;5030233;28;20036;-69
2021/11/28 08:00:34;;;;;;;29.40;19.73;;;;;;;8.39;100.00;98510.75;5039171;28;20025;-69
2021/11/28 08:03:00;;;;;;;28.05;20.83;;;;;;;8.37;100.00;98503.91;5040462;28;20031;-69
2021/11/28 08:05:25;;;;;;;31.45;19.05;;;;;;;8.50;100.00;98514.94;5035904;28;20029;-68
2021/11/28 08:07:51;;;;;;;29.58;18.55;;;;;;;8.54;100.00;98508.28;5031574;28;20036;-68
2021/11/28 08:10:17;;;;;;;25.13;17.88;;;;;;;8.59;100.00;98495.25;5031357;28;20021;-68
2021/11/28 08:12:42;;;;;;;25.48;17.10;;;;;;;8.61;100.00;98494.09;5034855;28;20025;-68
2021/11/28 08:15:12;;;;;;;19.30;15.23;;;;;;;8.64;100.00;98490.28;5042744;28;20053;-68
2021/11/28 08:17:38;;;;;;;21.30;15.07;;;;;;;8.53;100.00;98472.72;5035628;28;20040;-69
2021/11/28 08:20:08;;;;;;;20.23;14.23;;;;;;;8.59;100.00;98469.38;5037608;28;20026;-69
2021/11/28 08:22:34;;;;;;;22.05;14.70;;;;;;;8.65;100.00;98478.56;5038708;28;20820;-68
2021/11/28 08:27:29;;;;;;;17.73;12.90;;;;;;;8.70;100.00;98465.53;5134399;22;20052;-66
2021/11/28 08:29:57;;;;;;;19.33;12.80;;;;;;;8.71;100.00;98467.22;5068709;28;20032;-66
2021/11/28 08:32:22;;;;;;;18.23;12.05;;;;;;;8.69;100.00;98461.19;5069851;28;20028;-67
2021/11/28 08:34:48;;;;;;;16.80;11.63;;;;;;;8.74;100.00;98467.69;5069248;28;20024;-67
2021/11/28 08:37:14;;;;;;;15.88;11.07;;;;;;;8.70;100.00;98470.88;5069992;28;20024;-66
2021/11/28 08:39:39;;;;;;;18.33;11.95;;;;;;;8.76;100.00;98481.72;5070526;28;20085;-66
2021/11/28 08:42:07;;;;;;;17.15;12.20;;;;;;;8.74;100.00;98477.56;5071130;28;20502;-66
2021/11/28 08:44:35;;;;;;;16.48;11.00;;;;;;;8.76;100.00;98481.72;5071306;28;20035;-66
2021/11/28 08:47:00;;;;;;;16.90;11.85;;;;;;;8.83;100.00;98493.41;5053314;28;20102;-66
2021/11/28 08:49:26;;;;;;;17.90;11.40;;;;;;;8.83;100.00;98490.75;5070930;28;20469;-66
2021/11/28 08:51:51;;;;;;;17.20;11.27;;;;;;;8.88;100.00;98482.22;5070592;28;20041;-66
2021/11/28 08:54:17;;;;;;;14.68;9.07;;;;;;;8.88;100.00;98471.53;5071098;28;20413;-66
2021/11/28 08:56:50;;;;;;;12.13;8.60;;;;;;;8.92;100.00;98484.41;5071010;28;20368;-66
2021/11/28 08:59:16;;;;;;;13.80;7.95;;;;;;;8.95;100.00;98472.53;5070870;28;20032;-66
2021/11/28 09:01:42;;;;;;;11.18;7.28;;;;;;;8.96;100.00;98474.19;5052954;28;20040;-66
2021/11/28 09:04:07;;;;;;;13.00;7.20;;;;;;;9.02;100.00;98474.34;5071133;28;20388;-66
2021/11/28 09:06:33;;;;;;;10.60;6.50;;;;;;;8.99;100.00;98458.66;5074705;28;20100;-66
2021/11/28 09:08:59;;;;;;;8.57;5.70;;;;;;;9.06;100.00;98477.50;5074747;28;20116;-66
2021/11/28 09:11:25;;;;;;;9.75;6.85;;;;;;;9.13;100.00;98481.19;5073160;28;20046;-66
2021/11/28 09:13:50;;;;;;;8.20;6.07;;;;;;;9.18;100.00;98468.13;5074889;28;20021;-66
2021/11/28 09:16:16;;;;;;;9.48;5.60;;;;;;;9.20;100.00;98456.25;5074774;28;20028;-66
2021/11/28 09:18:48;;;;;;;9.70;6.03;;;;;;;9.26;100.00;98470.78;5074216;28;20024;-66
2021/11/28 09:21:16;;;;;;;9.65;6.60;;;;;;;9.30;100.00;98480.13;5074529;28;20059;-66
2021/11/28 09:26:30;;;;;;;10.98;6.53;;;;;;;9.43;100.00;98475.09;5078762;28;20506;-66
2021/11/28 09:28:59;;;;;;;9.95;7.10;;;;;;;9.52;100.00;98466.03;5094742;28;20831;-66
2021/11/28 09:31:25;;;;;;;10.23;7.15;;;;;;;9.57;100.00;98469.00;5094563;28;20040;-66
2021/11/28 09:33:51;;;;;;;11.82;8.07;;;;;;;9.62;100.00;98455.09;5094808;28;20036;-66
2021/11/28 09:36:16;;;;;;;10.93;7.70;;;;;;;9.66;100.00;98451.91;5076586;28;20023;-66
2021/11/28 09:38:42;;;;;;;10.82;7.65;;;;;;;9.75;100.00;98444.66;5076292;28;20119;-67
2021/11/28 09:41:10;;;;;;;11.88;7.97;;;;;;;9.80;100.00;98440.44;5094236;28;20502;-66
2021/11/28 09:43:41;;;;;;;11.95;7.93;;;;;;;9.84;100.00;98431.09;5094477;28;20484;-66
2021/11/28 09:46:09;;;;;;;12.65;8.18;;;;;;;9.90;100.00;98433.03;5075816;28;20035;-66
2021/11/28 09:48:36;;;;;;;12.30;8.00;;;;;;;9.96;100.00;98420.81;5093865;28;20020;-66
2021/11/28 09:51:04;;;;;;;12.98;7.80;;;;;;;10.00;100.00;98414.06;5093767;28;20027;-67
2021/11/28 09:53:32;;;;;;;11.45;8.63;;;;;;;9.99;100.00;98399.84;5093701;28;20056;-67
2021/11/28 09:56:00;;;;;;;12.32;8.10;;;;;;;10.09;100.00;98407.69;5093564;28;20020;-67
2021/11/28 09:58:27;;;;;;;12.85;9.00;;;;;;;10.11;100.00;98402.97;5093355;28;20475;-67
2021/11/28 10:00:55;;;;;;;13.32;9.02;;;;;;;10.12;100.00;98378.69;5093673;28;20039;-67
2021/11/28 10:03:21;;;;;;;13.20;9.40;;;;;;;10.18;100.00;98387.84;5093738;28;20024;-67
2021/11/28 10:05:48;;;;;;;14.68;9.82;;;;;;;10.19;100.00;98379.63;5093493;28;20586;-67
2021/11/28 10:08:13;;;;;;;13.98;9.23;;;;;;;10.20;100.00;98364.41;5093437;28;20114;-67
2021/11/28 10:10:41;;;;;;;15.23;9.27;;;;;;;10.26;100.00;98369.91;5093322;28;20111;-67
2021/11/28 10:13:07;;;;;;;15.57;10.00;;;;;;;10.27;100.00;98354.63;5093085;28;20498;-67
2021/11/28 10:15:32;;;;;;;13.43;9.20;;;;;;;10.35;100.00;98350.03;5092753;28;20028;-67
2021/11/28 10:17:59;;;;;;;15.55;9.65;;;;;;;10.32;100.00;98350.38;5093156;28;20024;-67
2021/11/28 10:20:29;;;;;;;13.77;9.40;;;;;;;10.40;100.00;98346.81;5093090;28;20016;-67
2021/11/28 10:22:55;;;;;;;15.02;10.30;;;;;;;10.46;100.00;98346.94;5093074;28;20039;-67
2021/11/28 10:25:30;;;;;;;16.25;10.68;;;;;;;10.56;100.00;98339.47;5075034;28;20023;-67
2021/11/28 10:28:09;;;;;;;14.70;9.63;;;;;;;10.59;100.00;98330.22;5071721;28;20040;-68
2021/11/28 10:30:38;;;;;;;16.80;10.60;;;;;;;10.60;100.00;98323.84;5073247;28;20032;-68
2021/11/28 10:33:13;;;;;;;14.98;10.27;;;;;;;10.66;100.00;98318.59;5073415;28;20020;-68
2021/11/28 10:35:58;;;;;;;17.02;10.98;;;;;;;10.68;100.00;98305.81;5073397;28;20030;-68
2021/11/28 10:38:31;;;;;;;16.98;11.48;;;;;;;10.72;100.00;98291.03;5073525;28;20016;-68
2021/11/28 10:40:56;;;;;;;17.83;11.27;;;;;;;10.75;100.00;98297.88;5072188;28;20036;-67
2021/11/28 10:43:22;;;;;;;17.30;11.30;;;;;;;10.68;100.00;98283.56;5073569;28;20039;-68
2021/11/28 10:45:49;;;;;;;13.52;10.18;;;;;;;10.75;100.00;98290.69;5070144;28;20041;-66
2021/11/28 10:48:25;;;;;;;16.77;11.95;;;;;;;10.83;100.00;98289.72;5071014;28;20082;-68
2021/11/28 10:50:51;;;;;;;13.85;10.73;;;;;;;10.86;100.00;98284.00;5052466;28;20088;-67
2021/11/28 10:53:20;;;;;;;15.15;11.00;;;;;;;10.89;100.00;98272.91;5070912;28;20020;-67
2021/11/28 10:55:50;;;;;;;18.58;11.82;;;;;;;10.95;100.00;98281.03;5051513;28;20032;-68
2021/11/28 10:58:19;;;;;;;17.02;11.95;;;;;;;11.04;100.00;98284.44;5052653;28;20035;-68
2021/11/28 11:00:51;;;;;;;15.68;11.73;;;;;;;11.11;100.00;98290.72;5079282;28;20480;-68
2021/11/28 11:03:21;;;;;;;17.38;11.70;;;;;;;11.14;100.00;98272.41;5086759;28;20521;-67
2021/11/28 11:05:49;;;;;;;14.85;10.95;;;;;;;11.16;100.00;98273.03;5088837;28;20802;-67
2021/11/28 11:08:16;;;;;;;16.85;10.65;;;;;;;11.13;100.00;98267.25;5088615;28;20108;-67
2021/11/28 11:10:47;;;;;;;16.20;11.50;;;;;;;11.18;100.00;98264.81;5088548;28;20616;-67
2021/11/28 11:13:18;;;;;;;15.65;11.20;;;;;;;11.29;100.00;98261.66;5070550;28;20035;-68
2021/11/28 11:15:49;;;;;;;15.43;11.82;;;;;;;11.32;100.00;98266.66;5069279;28;20039;-67
2021/11/28 11:18:20;;;;;;;16.88;11.93;;;;;;;11.34;100.00;98262.75;5087237;28;20040;-67
2021/11/28 11:20:49;;;;;;;19.98;12.30;;;;;;;11.38;100.00;98257.81;5070505;28;20143;-68
2021/11/28 11:23:39;;;;;;;17.75;12.38;;;;;;;11.39;100.00;98263.00;5088528;28;20051;-68
2021/11/28 11:26:19;;;;;;;16.98;12.13;;;;;;;11.45;100.00;98256.06;5088535;28;20111;-67
2021/11/28 11:29:10;;;;;;;20.15;13.32;;;;;;;11.48;100.00;98255.66;5067353;28;20980;-67